Aviation Digital Data Service (ADDS)

Output produced by METARs form (0811 UTC 20 March 2019)
found at http://www.aviationweather.gov/metar/data/
 
Forecast for: LXGB (GIBRALTAR (CIV/M, GI)
Text: TAF LXGB 200732Z 2009/2018 09018G28KT 9999 SCT030
Forecast period: 0900 to 1800 UTC 20 March 2019
Forecast type: FROM: standard forecast or significant change
Winds: from the E (90 degrees) at 21 MPH (18 knots; 9.3 m/s)
gusting to 32 MPH (28 knots; 14.4 m/s)
Visibility: 6 or more miles 10+ km)
Ceiling: at least 12,000 feet AGL
Clouds: scattered clouds at 3000 feet AGL
Weather: no significant weather forecast for this period
Text: TEMPO 2009/2016 08022G34KT 530002
Forecast period: 0900 to 1600 UTC 20 March 2019
Forecast type: TEMPORARY: The following changes expected for less than half the time period
Winds: from the E (80 degrees) at 25 MPH (22 knots; 11.3 m/s)
gusting to 39 MPH (34 knots; 17.5 m/s)
Visibility: missing
Ceiling: unknown
Clouds: missing
Weather: no significant weather forecast for this period